Time;durP1;ratioP1;P1;durP2;ratioP2;P2;SDS_P1;SDS_P2;PMS_P1;PMS_P2;Temp;Humidity;BMP_temperature;BMP_pressure;BME280_temperature;BME280_humidity;BME280_pressure;Samples;Min_cycle;Max_cycle;Signal;HPM_P1;HPM_P2
2023/10/22 00:00:39;;;;;;;2.67;0.80;;;;;;;;;;5113253;28;20475;-59
2023/10/22 00:03:07;;;;;;;2.88;0.70;;;;;;;;;;5113453;28;20395;-60
2023/10/22 00:05:34;;;;;;;3.28;1.33;;;;;;;;;;5113200;28;20055;-61
2023/10/22 00:08:01;;;;;;;4.28;0.90;;;;;;;;;;5113339;28;20060;-60
2023/10/22 00:10:28;;;;;;;3.72;1.02;;;;;;;;;;5113213;28;20389;-60
2023/10/22 00:12:55;;;;;;;4.38;1.20;;;;;;;;;;5113293;28;20055;-60
2023/10/22 00:15:22;;;;;;;3.55;0.98;;;;;;;;;;5112904;28;20063;-61
2023/10/22 00:17:50;;;;;;;2.35;0.77;;;;;;;;;;5113219;28;20428;-59
2023/10/22 00:20:17;;;;;;;4.63;0.82;;;;;;;;;;5113302;28;20055;-61
2023/10/22 00:22:44;;;;;;;3.53;1.05;;;;;;;;;;5113177;28;20054;-61
2023/10/22 00:25:10;;;;;;;2.65;0.95;;;;;;;;;;5113326;28;20428;-60
2023/10/22 00:27:37;;;;;;;4.70;1.20;;;;;;;;;;5113043;28;20416;-60
2023/10/22 00:30:05;;;;;;;4.00;1.20;;;;;;;;;;5112933;28;20051;-60
2023/10/22 00:32:32;;;;;;;2.80;0.60;;;;;;;;;;5112881;28;20047;-59
2023/10/22 00:35:00;;;;;;;3.70;1.02;;;;;;;;;;5112679;28;20047;-60
2023/10/22 00:37:27;;;;;;;2.63;0.82;;;;;;;;;;5113101;28;20051;-60
2023/10/22 00:39:54;;;;;;;4.97;1.10;;;;;;;;;;5113118;28;20062;-60
2023/10/22 00:42:22;;;;;;;2.80;0.80;;;;;;;;;;5113116;28;20043;-60
2023/10/22 00:44:48;;;;;;;4.95;1.23;;;;;;;;;;5113137;28;20048;-60
2023/10/22 00:47:15;;;;;;;3.47;1.00;;;;;;;;;;5112565;28;20052;-60
2023/10/22 00:49:43;;;;;;;2.22;0.82;;;;;;;;;;5113141;28;20058;-60
2023/10/22 00:52:12;;;;;;;2.30;0.70;;;;;;;;;;5113227;28;20044;-60
2023/10/22 00:54:39;;;;;;;2.63;0.73;;;;;;;;;;5112916;28;20141;-60
2023/10/22 00:57:06;;;;;;;3.25;0.98;;;;;;;;;;5113345;28;20051;-60
2023/10/22 00:59:33;;;;;;;2.90;0.80;;;;;;;;;;5113033;28;20404;-60
2023/10/22 01:02:00;;;;;;;3.25;0.73;;;;;;;;;;5112813;28;20047;-60
2023/10/22 01:04:27;;;;;;;3.67;0.80;;;;;;;;;;5112772;28;20511;-60
2023/10/22 01:06:54;;;;;;;4.03;1.00;;;;;;;;;;5112951;28;20484;-61
2023/10/22 01:09:22;;;;;;;3.83;0.82;;;;;;;;;;5112556;28;20054;-60
2023/10/22 01:11:57;;;;;;;4.53;0.80;;;;;;;;;;5112828;28;20047;-60
2023/10/22 01:14:24;;;;;;;3.47;0.93;;;;;;;;;;5112564;28;20047;-61
2023/10/22 01:16:51;;;;;;;3.55;0.82;;;;;;;;;;5112617;28;20499;-60
2023/10/22 01:19:18;;;;;;;3.70;0.95;;;;;;;;;;5112289;28;20051;-60
2023/10/22 01:21:45;;;;;;;4.03;1.00;;;;;;;;;;5112508;28;20047;-60
2023/10/22 01:24:13;;;;;;;2.03;0.90;;;;;;;;;;5112993;28;20492;-60
2023/10/22 01:26:40;;;;;;;2.95;0.77;;;;;;;;;;5112805;28;20078;-60
2023/10/22 01:29:07;;;;;;;4.15;0.90;;;;;;;;;;5112600;28;20062;-60
2023/10/22 01:31:34;;;;;;;4.10;0.95;;;;;;;;;;5112701;28;20055;-60
2023/10/22 01:34:01;;;;;;;2.17;0.98;;;;;;;;;;5112335;28;20070;-60
2023/10/22 01:36:27;;;;;;;3.28;1.02;;;;;;;;;;5116013;28;20052;-60
2023/10/22 01:38:54;;;;;;;4.07;1.08;;;;;;;;;;5115987;28;20051;-60
2023/10/22 01:41:23;;;;;;;3.13;0.82;;;;;;;;;;5115929;28;20047;-60
2023/10/22 01:43:50;;;;;;;3.85;0.80;;;;;;;;;;5116431;28;20416;-60
2023/10/22 01:46:16;;;;;;;4.60;0.82;;;;;;;;;;5115770;28;20063;-60
2023/10/22 01:48:43;;;;;;;2.53;0.77;;;;;;;;;;5115848;28;20059;-60
2023/10/22 01:51:10;;;;;;;5.57;1.00;;;;;;;;;;5116160;28;20051;-60
2023/10/22 01:53:37;;;;;;;3.85;0.85;;;;;;;;;;5115999;28;20062;-60
2023/10/22 01:56:04;;;;;;;3.70;0.80;;;;;;;;;;5115831;28;20054;-60
2023/10/22 01:58:32;;;;;;;3.33;0.98;;;;;;;;;;5115729;28;20052;-60
2023/10/22 02:01:02;;;;;;;2.72;0.80;;;;;;;;;;5116024;28;20058;-60
2023/10/22 02:03:29;;;;;;;6.32;1.38;;;;;;;;;;5115756;28;20052;-60
2023/10/22 02:05:56;;;;;;;2.92;0.98;;;;;;;;;;5115533;28;20141;-60
2023/10/22 02:08:22;;;;;;;3.40;0.60;;;;;;;;;;5115847;28;20060;-60
2023/10/22 02:10:52;;;;;;;3.13;0.90;;;;;;;;;;5115633;28;20047;-61
2023/10/22 02:13:19;;;;;;;2.38;0.90;;;;;;;;;;5115920;28;20059;-60
2023/10/22 02:15:48;;;;;;;4.63;0.80;;;;;;;;;;5115592;28;20051;-60
2023/10/22 02:18:14;;;;;;;2.92;0.82;;;;;;;;;;5115372;28;20071;-61
2023/10/22 02:20:41;;;;;;;4.10;1.20;;;;;;;;;;5115846;28;20055;-59
2023/10/22 02:23:08;;;;;;;3.30;0.98;;;;;;;;;;5115485;28;20043;-60
2023/10/22 02:25:35;;;;;;;4.47;1.00;;;;;;;;;;5115064;28;20365;-60
2023/10/22 02:28:01;;;;;;;3.88;0.90;;;;;;;;;;5115039;28;20140;-59
2023/10/22 02:30:28;;;;;;;3.15;0.90;;;;;;;;;;5115515;28;20056;-60
2023/10/22 02:32:56;;;;;;;4.63;1.17;;;;;;;;;;5115718;28;20048;-60
2023/10/22 02:35:23;;;;;;;2.67;0.90;;;;;;;;;;5115214;28;20058;-60
2023/10/22 02:37:50;;;;;;;4.57;1.15;;;;;;;;;;5115193;28;20056;-60
2023/10/22 02:40:17;;;;;;;2.15;0.80;;;;;;;;;;5115250;28;20416;-60
2023/10/22 02:42:44;;;;;;;3.53;1.13;;;;;;;;;;5115151;28;20404;-60
2023/10/22 02:45:10;;;;;;;4.22;1.20;;;;;;;;;;5114749;28;20075;-60
2023/10/22 02:47:37;;;;;;;1.98;0.68;;;;;;;;;;5114303;28;20047;-59
2023/10/22 02:50:06;;;;;;;2.13;0.90;;;;;;;;;;5114715;28;20051;-61
2023/10/22 02:52:33;;;;;;;2.75;1.10;;;;;;;;;;5114823;28;20386;-60
2023/10/22 02:54:59;;;;;;;5.10;1.08;;;;;;;;;;5114368;28;20074;-60
2023/10/22 02:57:26;;;;;;;2.88;0.90;;;;;;;;;;5114975;28;20048;-60
2023/10/22 02:59:53;;;;;;;3.60;1.05;;;;;;;;;;5114891;28;20047;-61
2023/10/22 03:02:20;;;;;;;2.95;0.93;;;;;;;;;;5115381;28;20051;-60
2023/10/22 03:04:47;;;;;;;2.90;0.90;;;;;;;;;;5114719;28;20052;-60
2023/10/22 03:07:15;;;;;;;3.80;0.90;;;;;;;;;;5097278;28;20063;-61
2023/10/22 03:09:42;;;;;;;3.10;0.90;;;;;;;;;;5094162;28;20417;-59
2023/10/22 03:12:11;;;;;;;3.80;1.00;;;;;;;;;;5094081;28;20071;-60
2023/10/22 03:14:38;;;;;;;2.38;0.80;;;;;;;;;;5093595;28;20052;-61
2023/10/22 03:17:05;;;;;;;4.30;1.10;;;;;;;;;;5094009;28;20056;-60
2023/10/22 03:19:32;;;;;;;2.75;0.73;;;;;;;;;;5093985;28;20170;-59
2023/10/22 03:21:58;;;;;;;2.47;0.90;;;;;;;;;;5094330;28;20048;-60
2023/10/22 03:24:27;;;;;;;2.67;0.75;;;;;;;;;;5093725;28;20060;-59
2023/10/22 03:26:54;;;;;;;2.10;0.80;;;;;;;;;;5094082;28;20488;-60
2023/10/22 03:29:21;;;;;;;2.72;0.88;;;;;;;;;;5093664;28;20504;-60
2023/10/22 03:31:48;;;;;;;3.38;0.80;;;;;;;;;;5093085;28;20056;-60
2023/10/22 03:34:14;;;;;;;3.13;1.10;;;;;;;;;;5093950;28;20070;-60
2023/10/22 03:36:41;;;;;;;2.63;0.88;;;;;;;;;;5093466;28;20489;-61
2023/10/22 03:39:08;;;;;;;2.33;0.60;;;;;;;;;;5089752;28;20074;-60
2023/10/22 03:41:36;;;;;;;2.28;0.80;;;;;;;;;;5073155;28;20052;-61
2023/10/22 03:44:04;;;;;;;7.70;1.20;;;;;;;;;;5073054;28;20477;-60
2023/10/22 03:46:31;;;;;;;3.53;0.90;;;;;;;;;;5073068;28;20067;-60
2023/10/22 03:48:58;;;;;;;2.80;0.90;;;;;;;;;;5073313;28;20052;-61
2023/10/22 03:51:25;;;;;;;2.53;0.80;;;;;;;;;;5073695;28;20060;-61
2023/10/22 03:53:53;;;;;;;2.63;0.90;;;;;;;;;;5073361;28;20055;-60
2023/10/22 03:56:20;;;;;;;3.03;0.70;;;;;;;;;;5073486;28;20052;-60
2023/10/22 03:58:49;;;;;;;3.30;0.80;;;;;;;;;;5072960;28;20060;-60
2023/10/22 04:01:15;;;;;;;1.92;0.70;;;;;;;;;;5073144;28;20063;-60
2023/10/22 04:03:43;;;;;;;2.90;0.80;;;;;;;;;;5072769;28;20056;-60
2023/10/22 04:06:10;;;;;;;3.28;0.77;;;;;;;;;;5073026;28;20056;-60
2023/10/22 04:08:36;;;;;;;3.70;0.70;;;;;;;;;;5073032;28;20433;-60
2023/10/22 04:11:04;;;;;;;1.85;0.80;;;;;;;;;;5073017;28;20401;-61
2023/10/22 04:13:31;;;;;;;2.90;1.08;;;;;;;;;;5073205;28;20048;-60
2023/10/22 04:15:59;;;;;;;2.15;0.80;;;;;;;;;;5073327;28;20052;-60
2023/10/22 04:18:26;;;;;;;2.00;0.80;;;;;;;;;;5072686;28;20059;-60
2023/10/22 04:20:53;;;;;;;3.15;0.80;;;;;;;;;;5073202;28;20044;-60
2023/10/22 04:23:20;;;;;;;2.42;0.93;;;;;;;;;;5072601;28;20430;-60
2023/10/22 04:25:46;;;;;;;2.97;0.80;;;;;;;;;;5072368;28;20056;-60
2023/10/22 04:28:13;;;;;;;2.92;0.88;;;;;;;;;;5072358;28;20546;-60
2023/10/22 04:30:41;;;;;;;3.70;0.98;;;;;;;;;;5072899;28;20477;-61
2023/10/22 04:33:09;;;;;;;3.33;0.88;;;;;;;;;;5072273;28;20056;-60
2023/10/22 04:35:36;;;;;;;4.50;0.82;;;;;;;;;;5073931;28;20048;-60
2023/10/22 04:38:03;;;;;;;2.00;0.77;;;;;;;;;;5092937;28;20480;-59
2023/10/22 04:40:32;;;;;;;4.50;0.82;;;;;;;;;;5092274;28;20512;-59
2023/10/22 04:42:59;;;;;;;1.95;0.60;;;;;;;;;;5093148;28;20048;-59
2023/10/22 04:45:26;;;;;;;1.90;0.70;;;;;;;;;;5092090;28;20052;-60
2023/10/22 04:47:54;;;;;;;2.20;0.65;;;;;;;;;;5076989;28;20063;-59
2023/10/22 04:50:24;;;;;;;4.07;1.08;;;;;;;;;;5071638;28;20485;-59
2023/10/22 04:52:51;;;;;;;;;;;;;;;;;;5072546;28;20055;-59
2023/10/22 04:55:18;;;;;;;2.85;0.75;;;;;;;;;;5072214;28;20311;-59
2023/10/22 04:57:44;;;;;;;4.03;0.88;;;;;;;;;;5071460;28;20059;-60
2023/10/22 05:00:12;;;;;;;3.42;0.90;;;;;;;;;;5072534;28;20059;-59
2023/10/22 05:02:38;;;;;;;4.18;0.95;;;;;;;;;;5063806;28;20405;-59
2023/10/22 05:05:05;;;;;;;2.28;0.70;;;;;;;;;;5071779;28;20057;-59
2023/10/22 05:07:33;;;;;;;1.65;0.75;;;;;;;;;;5072099;28;20057;-59
2023/10/22 05:10:00;;;;;;;4.35;1.13;;;;;;;;;;5073511;28;20049;-59
2023/10/22 05:12:27;;;;;;;3.90;1.02;;;;;;;;;;5076137;28;20058;-59
2023/10/22 05:14:54;;;;;;;4.93;1.10;;;;;;;;;;5076036;28;20048;-59
2023/10/22 05:17:21;;;;;;;2.47;1.00;;;;;;;;;;5075968;28;20060;-61
2023/10/22 05:19:48;;;;;;;2.45;0.77;;;;;;;;;;5075498;28;20524;-59
2023/10/22 05:22:14;;;;;;;2.17;0.80;;;;;;;;;;5075489;28;20444;-60
2023/10/22 05:24:45;;;;;;;2.97;0.70;;;;;;;;;;5075307;28;20055;-60
2023/10/22 05:27:12;;;;;;;3.47;0.90;;;;;;;;;;5075868;28;20053;-60
2023/10/22 05:29:39;;;;;;;2.08;0.75;;;;;;;;;;5075658;28;20057;-60
2023/10/22 05:32:07;;;;;;;2.35;0.80;;;;;;;;;;5075717;28;20052;-59
2023/10/22 05:34:34;;;;;;;2.45;0.70;;;;;;;;;;5075877;28;20055;-59
2023/10/22 05:37:01;;;;;;;1.75;0.68;;;;;;;;;;5075771;28;20056;-60
2023/10/22 05:39:28;;;;;;;3.08;0.70;;;;;;;;;;5075611;28;20053;-61
2023/10/22 05:41:56;;;;;;;2.13;0.70;;;;;;;;;;5075382;28;20056;-61
2023/10/22 05:44:24;;;;;;;2.40;0.60;;;;;;;;;;5075430;28;20060;-61
2023/10/22 05:46:51;;;;;;;1.85;0.60;;;;;;;;;;5081376;28;20428;-61
2023/10/22 05:49:20;;;;;;;1.98;0.50;;;;;;;;;;5095570;28;20503;-61
2023/10/22 05:51:47;;;;;;;1.17;0.55;;;;;;;;;;5095759;28;20063;-61
2023/10/22 05:54:14;;;;;;;1.50;0.50;;;;;;;;;;5095971;28;20051;-61
2023/10/22 05:56:40;;;;;;;2.55;0.55;;;;;;;;;;5095744;28;20388;-61
2023/10/22 05:59:09;;;;;;;1.23;0.50;;;;;;;;;;5095621;28;20119;-61
2023/10/22 06:01:38;;;;;;;1.75;0.50;;;;;;;;;;5095615;28;20051;-60
2023/10/22 06:04:05;;;;;;;1.77;0.60;;;;;;;;;;5094972;28;20416;-61
2023/10/22 06:06:32;;;;;;;1.67;0.60;;;;;;;;;;5095436;28;20056;-60
2023/10/22 06:08:59;;;;;;;2.15;0.70;;;;;;;;;;5095104;28;20055;-60
2023/10/22 06:11:26;;;;;;;3.53;0.60;;;;;;;;;;5094651;28;20059;-60
2023/10/22 06:13:52;;;;;;;2.72;0.77;;;;;;;;;;5095117;28;20485;-60
2023/10/22 06:16:21;;;;;;;2.33;0.70;;;;;;;;;;5094659;28;20052;-60
2023/10/22 06:18:48;;;;;;;2.15;0.80;;;;;;;;;;5094671;28;20059;-60
2023/10/22 06:21:15;;;;;;;1.73;0.50;;;;;;;;;;5094429;28;20052;-60
2023/10/22 06:23:42;;;;;;;3.22;0.52;;;;;;;;;;5094738;28;20456;-61
2023/10/22 06:26:10;;;;;;;1.58;0.50;;;;;;;;;;5094635;28;20408;-61
2023/10/22 06:28:36;;;;;;;1.35;0.40;;;;;;;;;;5095112;28;20382;-60
2023/10/22 06:31:06;;;;;;;1.30;0.60;;;;;;;;;;5094475;28;20056;-59
2023/10/22 06:33:35;;;;;;;1.83;0.60;;;;;;;;;;5094892;28;20056;-60
2023/10/22 06:36:11;;;;;;;1.35;0.50;;;;;;;;;;5094673;28;20048;-59
2023/10/22 06:38:37;;;;;;;0.88;0.40;;;;;;;;;;5094656;28;20055;-59
2023/10/22 06:41:05;;;;;;;1.92;0.50;;;;;;;;;;5094172;28;20059;-61
2023/10/22 06:43:32;;;;;;;1.85;0.50;;;;;;;;;;5094499;28;20052;-60
2023/10/22 06:45:59;;;;;;;3.08;0.52;;;;;;;;;;5094677;28;20060;-60
2023/10/22 06:48:25;;;;;;;1.33;0.57;;;;;;;;;;5094060;28;20413;-60
2023/10/22 06:50:54;;;;;;;0.65;0.30;;;;;;;;;;5094100;28;20051;-60
2023/10/22 06:53:20;;;;;;;1.58;0.77;;;;;;;;;;5094639;28;20055;-61
2023/10/22 06:55:47;;;;;;;0.63;0.30;;;;;;;;;;5094316;28;20056;-60
2023/10/22 06:58:14;;;;;;;1.85;0.40;;;;;;;;;;5094252;28;20071;-60
2023/10/22 07:00:41;;;;;;;2.45;0.65;;;;;;;;;;5093939;28;20055;-60
2023/10/22 07:03:08;;;;;;;0.68;0.30;;;;;;;;;;5094422;28;20052;-60
2023/10/22 07:05:35;;;;;;;1.33;0.50;;;;;;;;;;5094105;28;20465;-60
2023/10/22 07:08:06;;;;;;;1.20;0.40;;;;;;;;;;5094176;28;20056;-60
2023/10/22 07:10:33;;;;;;;2.03;0.45;;;;;;;;;;5094015;28;20056;-60
2023/10/22 07:12:59;;;;;;;1.83;0.60;;;;;;;;;;5094150;28;20056;-61
2023/10/22 07:15:26;;;;;;;1.08;0.40;;;;;;;;;;5093385;28;20052;-61
2023/10/22 07:17:53;;;;;;;1.40;0.40;;;;;;;;;;5093602;28;20056;-60
2023/10/22 07:20:21;;;;;;;1.40;0.38;;;;;;;;;;5093377;28;20067;-60
2023/10/22 07:22:48;;;;;;;0.68;0.32;;;;;;;;;;5093996;28;20063;-60
2023/10/22 07:25:16;;;;;;;1.00;0.50;;;;;;;;;;5093526;28;20048;-60
2023/10/22 07:27:43;;;;;;;1.58;0.55;;;;;;;;;;5093369;28;20059;-60
2023/10/22 07:30:11;;;;;;;2.10;0.70;;;;;;;;;;5093320;28;20047;-60
2023/10/22 07:32:37;;;;;;;0.85;0.40;;;;;;;;;;5092763;28;20052;-60
2023/10/22 07:35:05;;;;;;;2.00;0.50;;;;;;;;;;5093494;28;20055;-60
2023/10/22 07:37:32;;;;;;;0.93;0.50;;;;;;;;;;5093724;28;20055;-61
2023/10/22 07:39:59;;;;;;;3.15;0.60;;;;;;;;;;5093067;28;20166;-61
2023/10/22 07:42:26;;;;;;;0.57;0.30;;;;;;;;;;5093618;28;20052;-61
2023/10/22 07:44:53;;;;;;;1.63;0.63;;;;;;;;;;5093314;28;20055;-61
2023/10/22 07:47:20;;;;;;;1.40;0.50;;;;;;;;;;5093155;28;20533;-61
2023/10/22 07:49:51;;;;;;;0.90;0.40;;;;;;;;;;5093315;28;20064;-61
2023/10/22 07:52:17;;;;;;;0.98;0.30;;;;;;;;;;5092972;28;20044;-61
2023/10/22 07:54:47;;;;;;;1.55;0.65;;;;;;;;;;5093121;28;20048;-62
2023/10/22 07:57:14;;;;;;;1.10;0.60;;;;;;;;;;5093379;28;20047;-62
2023/10/22 07:59:42;;;;;;;1.05;0.43;;;;;;;;;;5093096;28;20056;-62
2023/10/22 08:02:09;;;;;;;1.25;0.55;;;;;;;;;;5093345;28;20056;-61
2023/10/22 08:04:37;;;;;;;4.40;0.90;;;;;;;;;;5092741;28;20070;-61
2023/10/22 08:07:04;;;;;;;2.85;0.90;;;;;;;;;;5093249;28;20087;-61
2023/10/22 08:09:30;;;;;;;1.63;0.88;;;;;;;;;;5093176;28;20051;-61
2023/10/22 08:11:57;;;;;;;1.15;0.50;;;;;;;;;;5092672;28;20377;-61
2023/10/22 08:14:25;;;;;;;1.10;0.60;;;;;;;;;;5092716;28;20047;-61
2023/10/22 08:16:53;;;;;;;1.90;0.80;;;;;;;;;;5092479;28;20055;-60
2023/10/22 08:19:20;;;;;;;1.65;0.68;;;;;;;;;;5093202;28;20059;-60
2023/10/22 08:21:46;;;;;;;1.00;0.55;;;;;;;;;;5092780;28;20143;-61
2023/10/22 08:24:13;;;;;;;1.55;0.50;;;;;;;;;;5092611;28;20048;-61
2023/10/22 08:26:43;;;;;;;2.40;0.47;;;;;;;;;;5092496;28;20051;-60
2023/10/22 08:29:09;;;;;;;0.93;0.45;;;;;;;;;;5092662;28;20056;-60
2023/10/22 08:31:36;;;;;;;1.02;0.60;;;;;;;;;;5092835;28;20056;-60
2023/10/22 08:34:04;;;;;;;0.88;0.40;;;;;;;;;;5092539;28;20417;-60
2023/10/22 08:36:32;;;;;;;1.88;0.63;;;;;;;;;;5092276;28;20417;-60
2023/10/22 08:38:59;;;;;;;1.08;0.57;;;;;;;;;;5092965;28;20056;-60
2023/10/22 08:41:29;;;;;;;1.40;0.80;;;;;;;;;;5092315;28;20059;-60
2023/10/22 08:43:56;;;;;;;1.77;0.68;;;;;;;;;;5091976;28;20055;-61
2023/10/22 08:46:22;;;;;;;1.10;0.55;;;;;;;;;;5091979;28;20056;-60
2023/10/22 08:48:50;;;;;;;1.98;0.77;;;;;;;;;;5092277;28;20481;-60
2023/10/22 08:51:19;;;;;;;0.70;0.40;;;;;;;;;;5092229;28;20056;-60
2023/10/22 08:53:46;;;;;;;1.40;0.77;;;;;;;;;;5092444;28;20055;-61
2023/10/22 08:56:13;;;;;;;2.30;0.82;;;;;;;;;;5092236;28;20044;-61
2023/10/22 08:58:40;;;;;;;1.42;0.45;;;;;;;;;;5092355;28;20102;-61
2023/10/22 09:01:10;;;;;;;1.63;0.75;;;;;;;;;;5092105;28;20476;-61
2023/10/22 09:03:36;;;;;;;1.98;0.80;;;;;;;;;;5092581;28;20078;-61
2023/10/22 09:06:05;;;;;;;1.15;0.60;;;;;;;;;;5092088;28;20043;-61
2023/10/22 09:08:43;;;;;;;1.88;0.80;;;;;;;;;;5092316;28;20052;-61
2023/10/22 09:11:13;;;;;;;2.10;0.80;;;;;;;;;;5092081;28;20396;-59
2023/10/22 09:13:40;;;;;;;2.25;0.70;;;;;;;;;;5091619;28;20074;-59
2023/10/22 09:16:08;;;;;;;1.23;0.68;;;;;;;;;;5091750;28;20059;-60
2023/10/22 09:18:42;;;;;;;1.33;0.63;;;;;;;;;;5092028;28;20059;-60
2023/10/22 09:21:08;;;;;;;2.67;0.77;;;;;;;;;;5091882;28;20048;-60
2023/10/22 09:23:35;;;;;;;1.50;0.60;;;;;;;;;;5092224;28;20063;-59
2023/10/22 09:26:03;;;;;;;1.75;0.60;;;;;;;;;;5091568;28;20504;-60
2023/10/22 09:28:31;;;;;;;1.52;0.50;;;;;;;;;;5092009;28;20063;-60
2023/10/22 09:30:58;;;;;;;0.88;0.47;;;;;;;;;;5091824;28;20048;-60
2023/10/22 09:33:31;;;;;;;1.42;0.57;;;;;;;;;;5091768;28;20059;-60
2023/10/22 09:36:00;;;;;;;1.38;0.60;;;;;;;;;;5092114;28;20040;-61
2023/10/22 09:38:43;;;;;;;1.42;0.63;;;;;;;;;;5091852;28;20056;-60
2023/10/22 09:41:13;;;;;;;1.33;0.60;;;;;;;;;;5091461;28;20488;-62
2023/10/22 09:43:40;;;;;;;1.42;0.60;;;;;;;;;;5091777;28;20052;-60
2023/10/22 09:46:07;;;;;;;1.42;0.50;;;;;;;;;;5091123;28;20070;-59
2023/10/22 09:48:34;;;;;;;1.38;0.50;;;;;;;;;;5091545;28;20052;-61
2023/10/22 09:51:04;;;;;;;0.85;0.32;;;;;;;;;;5091428;28;20056;-60
2023/10/22 09:53:31;;;;;;;;;;;;;;;;;;5092135;28;20055;-61
2023/10/22 09:55:58;;;;;;;1.00;0.40;;;;;;;;;;5093193;28;19920;-61
2023/10/22 09:58:29;;;;;;;1.70;0.50;;;;;;;;;;5095490;28;20473;-60
2023/10/22 10:00:57;;;;;;;1.48;0.50;;;;;;;;;;5095312;28;20052;-60
2023/10/22 10:03:24;;;;;;;2.03;0.52;;;;;;;;;;5095226;28;20079;-61
2023/10/22 10:05:51;;;;;;;0.98;0.45;;;;;;;;;;5094774;28;20484;-60
2023/10/22 10:08:19;;;;;;;2.38;0.38;;;;;;;;;;5094868;28;20052;-61
2023/10/22 10:10:46;;;;;;;1.77;0.70;;;;;;;;;;5095226;28;20504;-60
2023/10/22 10:13:12;;;;;;;1.77;0.40;;;;;;;;;;5094590;28;20079;-61
2023/10/22 10:15:41;;;;;;;2.08;0.55;;;;;;;;;;5094672;28;20056;-61
2023/10/22 10:18:09;;;;;;;0.85;0.40;;;;;;;;;;5094982;28;20052;-61
2023/10/22 10:20:39;;;;;;;1.87;0.70;;;;;;;;;;5094534;28;20062;-61
2023/10/22 10:23:08;;;;;;;3.00;0.82;;;;;;;;;;5094992;28;20497;-61
2023/10/22 10:25:35;;;;;;;1.52;0.70;;;;;;;;;;5094455;28;20055;-60
2023/10/22 10:28:03;;;;;;;2.20;0.68;;;;;;;;;;5094967;28;20073;-60
2023/10/22 10:30:30;;;;;;;1.95;0.57;;;;;;;;;;5094768;28;20390;-60
2023/10/22 10:32:58;;;;;;;4.55;0.85;;;;;;;;;;5094370;28;20052;-60
2023/10/22 10:35:25;;;;;;;1.40;0.65;;;;;;;;;;5094523;28;20055;-60
2023/10/22 10:38:06;;;;;;;1.63;0.50;;;;;;;;;;5094551;28;20054;-60
2023/10/22 10:40:43;;;;;;;1.40;0.55;;;;;;;;;;5081515;28;20064;-60
2023/10/22 10:43:10;;;;;;;2.40;0.73;;;;;;;;;;5094091;28;20056;-60
2023/10/22 10:45:40;;;;;;;2.97;0.80;;;;;;;;;;5094092;28;20055;-62
2023/10/22 10:48:28;;;;;;;1.48;0.55;;;;;;;;;;5093943;28;20063;-60
2023/10/22 10:51:11;;;;;;;2.28;0.60;;;;;;;;;;5094124;28;20097;-60
2023/10/22 10:53:53;;;;;;;1.73;0.60;;;;;;;;;;5094228;28;20075;-60
2023/10/22 10:56:20;;;;;;;0.98;0.40;;;;;;;;;;5094065;28;20052;-60
2023/10/22 10:58:47;;;;;;;1.73;0.70;;;;;;;;;;5094001;28;20052;-60
2023/10/22 11:01:14;;;;;;;2.53;0.60;;;;;;;;;;5093954;28;20063;-60
2023/10/22 11:03:42;;;;;;;2.30;0.70;;;;;;;;;;5093784;28;20485;-60
2023/10/22 11:06:11;;;;;;;1.73;0.70;;;;;;;;;;5093712;28;20044;-60
2023/10/22 11:08:45;;;;;;;3.17;0.70;;;;;;;;;;5094007;28;20516;-60
2023/10/22 11:11:15;;;;;;;1.88;0.85;;;;;;;;;;5093637;28;20056;-60
2023/10/22 11:13:42;;;;;;;1.92;0.70;;;;;;;;;;5093619;28;20052;-60
2023/10/22 11:16:10;;;;;;;1.15;0.70;;;;;;;;;;5093721;28;20052;-60
2023/10/22 11:18:53;;;;;;;2.80;0.55;;;;;;;;;;5093760;28;20052;-60
2023/10/22 11:21:21;;;;;;;1.15;0.52;;;;;;;;;;5094094;28;20056;-60
2023/10/22 11:23:48;;;;;;;1.20;0.60;;;;;;;;;;5093164;28;20060;-60
2023/10/22 11:26:14;;;;;;;1.67;0.43;;;;;;;;;;5093461;28;20044;-60
2023/10/22 11:28:41;;;;;;;2.78;0.77;;;;;;;;;;5093738;28;20412;-60
2023/10/22 11:31:22;;;;;;;1.13;0.70;;;;;;;;;;5093886;28;20409;-60
2023/10/22 11:33:49;;;;;;;1.05;0.43;;;;;;;;;;5093671;28;20055;-61
2023/10/22 11:36:23;;;;;;;1.80;0.60;;;;;;;;;;5093553;28;20432;-60
2023/10/22 11:38:51;;;;;;;1.30;0.40;;;;;;;;;;5093763;28;20508;-60
2023/10/22 11:41:17;;;;;;;1.67;0.60;;;;;;;;;;5093786;28;20059;-60
2023/10/22 11:43:44;;;;;;;1.67;0.52;;;;;;;;;;5093138;28;20055;-60
2023/10/22 11:46:11;;;;;;;2.67;0.43;;;;;;;;;;5093138;28;20059;-60
2023/10/22 11:48:45;;;;;;;1.13;0.50;;;;;;;;;;5093521;28;20481;-60
2023/10/22 11:51:12;;;;;;;2.40;0.50;;;;;;;;;;5093169;28;20056;-61
2023/10/22 11:53:43;;;;;;;1.92;0.80;;;;;;;;;;5093260;28;20052;-60
2023/10/22 11:56:10;;;;;;;0.98;0.47;;;;;;;;;;5093318;28;20048;-59
2023/10/22 11:58:36;;;;;;;0.80;0.35;;;;;;;;;;5092973;28;20059;-60
2023/10/22 12:01:03;;;;;;;1.55;0.52;;;;;;;;;;5092849;28;20063;-60
2023/10/22 12:03:30;;;;;;;2.30;0.47;;;;;;;;;;5092889;28;20059;-60
2023/10/22 12:05:57;;;;;;;1.23;0.55;;;;;;;;;;5092965;28;20044;-60
2023/10/22 12:08:24;;;;;;;2.83;0.80;;;;;;;;;;5092579;28;20488;-60
2023/10/22 12:10:52;;;;;;;2.00;0.77;;;;;;;;;;5092878;28;20048;-60
2023/10/22 12:13:19;;;;;;;1.77;0.40;;;;;;;;;;5092900;28;20079;-59
2023/10/22 12:15:46;;;;;;;1.35;0.57;;;;;;;;;;5092704;28;20480;-60
2023/10/22 12:18:13;;;;;;;2.08;0.60;;;;;;;;;;5092177;28;20063;-60
2023/10/22 12:20:40;;;;;;;1.42;0.40;;;;;;;;;;5092837;28;20048;-60
2023/10/22 12:23:10;;;;;;;1.98;0.70;;;;;;;;;;5092727;28;20048;-60
2023/10/22 12:25:37;;;;;;;1.20;0.40;;;;;;;;;;5092278;28;20481;-59
2023/10/22 12:28:05;;;;;;;1.40;0.45;;;;;;;;;;5092206;28;20059;-59
2023/10/22 12:30:32;;;;;;;0.95;0.47;;;;;;;;;;5092741;28;20055;-59
2023/10/22 12:32:59;;;;;;;1.48;0.40;;;;;;;;;;5092728;28;20424;-59
2023/10/22 12:35:26;;;;;;;2.15;0.55;;;;;;;;;;5092344;28;20058;-59
2023/10/22 12:37:54;;;;;;;0.95;0.30;;;;;;;;;;5092683;28;20051;-59
2023/10/22 12:40:21;;;;;;;1.55;0.38;;;;;;;;;;5092102;28;20052;-59
2023/10/22 12:42:48;;;;;;;0.85;0.35;;;;;;;;;;5092477;28;20408;-60
2023/10/22 12:45:16;;;;;;;1.27;0.40;;;;;;;;;;5092700;28;20052;-59
2023/10/22 12:47:43;;;;;;;1.15;0.40;;;;;;;;;;5092098;28;20063;-59
2023/10/22 12:50:10;;;;;;;1.65;0.60;;;;;;;;;;5092550;28;20059;-59
2023/10/22 12:52:37;;;;;;;1.27;0.40;;;;;;;;;;5092785;28;20142;-59
2023/10/22 12:55:04;;;;;;;2.03;0.60;;;;;;;;;;5092503;28;20052;-60
2023/10/22 12:57:32;;;;;;;1.55;0.43;;;;;;;;;;5092542;28;20048;-59
2023/10/22 12:59:58;;;;;;;0.73;0.35;;;;;;;;;;5092564;28;20051;-60
2023/10/22 13:02:33;;;;;;;2.10;0.57;;;;;;;;;;5092368;28;20056;-60
2023/10/22 13:04:59;;;;;;;1.48;0.40;;;;;;;;;;5091931;28;20051;-60
2023/10/22 13:07:26;;;;;;;3.33;0.60;;;;;;;;;;5092537;28;20059;-60
2023/10/22 13:09:53;;;;;;;1.63;0.43;;;;;;;;;;5092209;28;20056;-59
2023/10/22 13:12:20;;;;;;;0.75;0.32;;;;;;;;;;5092491;28;20397;-59
2023/10/22 13:14:46;;;;;;;1.00;0.47;;;;;;;;;;5092067;28;20056;-60
2023/10/22 13:17:13;;;;;;;1.48;0.40;;;;;;;;;;5092316;28;20407;-59
2023/10/22 13:19:41;;;;;;;1.63;0.60;;;;;;;;;;5091817;28;20047;-60
2023/10/22 13:22:08;;;;;;;1.08;0.60;;;;;;;;;;5092562;28;20412;-60
2023/10/22 13:24:35;;;;;;;2.00;0.52;;;;;;;;;;5091692;28;20048;-60
2023/10/22 13:27:02;;;;;;;1.40;0.50;;;;;;;;;;5092301;28;20052;-59
2023/10/22 13:29:28;;;;;;;1.70;0.68;;;;;;;;;;5091811;28;20059;-59
2023/10/22 13:31:55;;;;;;;1.00;0.40;;;;;;;;;;5094088;28;20056;-59
2023/10/22 13:34:22;;;;;;;2.50;0.50;;;;;;;;;;5095913;28;20051;-59
2023/10/22 13:36:50;;;;;;;1.50;0.60;;;;;;;;;;5095576;28;20059;-59
2023/10/22 13:39:17;;;;;;;0.88;0.40;;;;;;;;;;5096147;28;20051;-60
2023/10/22 13:41:44;;;;;;;1.08;0.57;;;;;;;;;;5095972;28;20063;-60
2023/10/22 13:44:11;;;;;;;1.05;0.52;;;;;;;;;;5095551;28;20051;-60
2023/10/22 13:46:38;;;;;;;1.02;0.47;;;;;;;;;;5095514;28;20048;-61
2023/10/22 13:49:05;;;;;;;1.55;0.40;;;;;;;;;;5095700;28;20055;-60
2023/10/22 13:51:32;;;;;;;0.57;0.30;;;;;;;;;;5095644;28;20059;-60
2023/10/22 13:54:00;;;;;;;1.08;0.40;;;;;;;;;;5095603;28;20048;-60
2023/10/22 13:56:27;;;;;;;0.80;0.32;;;;;;;;;;5095432;28;20051;-60
2023/10/22 13:58:54;;;;;;;0.90;0.40;;;;;;;;;;5095313;28;20048;-61
2023/10/22 14:01:20;;;;;;;0.73;0.32;;;;;;;;;;5094707;28;20052;-60
2023/10/22 14:03:47;;;;;;;0.77;0.30;;;;;;;;;;5094805;28;20052;-60
2023/10/22 14:06:14;;;;;;;1.00;0.40;;;;;;;;;;5095368;28;20407;-60
2023/10/22 14:08:41;;;;;;;1.15;0.40;;;;;;;;;;5095424;28;20044;-59
2023/10/22 14:11:10;;;;;;;1.08;0.60;;;;;;;;;;5095299;28;20055;-60
2023/10/22 14:13:37;;;;;;;1.45;0.50;;;;;;;;;;5094823;28;20489;-60
2023/10/22 14:16:04;;;;;;;0.93;0.52;;;;;;;;;;5094849;28;20052;-60
2023/10/22 14:18:31;;;;;;;1.52;0.63;;;;;;;;;;5095071;28;20048;-61
2023/10/22 14:21:01;;;;;;;0.75;0.50;;;;;;;;;;5094636;28;20079;-60
2023/10/22 14:23:28;;;;;;;0.95;0.60;;;;;;;;;;5095155;28;20059;-60
2023/10/22 14:25:57;;;;;;;1.15;0.55;;;;;;;;;;5095053;28;20473;-60
2023/10/22 14:28:24;;;;;;;;;;;;;;;;;;5095230;28;20044;-60
2023/10/22 14:30:52;;;;;;;1.23;0.70;;;;;;;;;;5095255;28;19920;-60
2023/10/22 14:33:21;;;;;;;1.30;0.60;;;;;;;;;;5095038;28;20499;-60
2023/10/22 14:35:48;;;;;;;2.67;0.80;;;;;;;;;;5094823;28;20070;-60
2023/10/22 14:38:15;;;;;;;2.97;0.75;;;;;;;;;;5094647;28;20058;-60
2023/10/22 14:40:42;;;;;;;0.82;0.57;;;;;;;;;;5094403;28;20052;-60
2023/10/22 14:43:08;;;;;;;1.20;0.55;;;;;;;;;;5094130;28;20059;-60
2023/10/22 14:45:35;;;;;;;1.20;0.80;;;;;;;;;;5094348;28;20056;-60